Aviation Digital Data Service (ADDS)

Output produced by METARs form (2003 UTC 05 May 2016)
found at http://www.aviationweather.gov/adds/metars/
 
KAOO 051953Z AUTO 02011KT 10SM FEW030 BKN038 OVC047 14/07 A2965 RMK AO2 SLP041 T01440067
KAOO 051921Z AUTO 02011G15KT 10SM BKN030 OVC048 14/07 A2967 RMK AO2 T01440072
KAOO 051853Z AUTO 06008G16KT 10SM BKN028 BKN033 OVC050 14/07 A2967 RMK AO2 SLP046 T01390072
KAOO 051840Z AUTO 03010KT 10SM BKN028 OVC049 14/07 A2967 RMK AO2 T01390072
KAOO 051753Z AUTO 03007KT 10SM FEW022 SCT027 OVC039 13/07 A2968 RMK AO2 SLP049 T01330072 10133 20100 58008
KAOO 051739Z AUTO 05007KT 020V080 10SM BKN022 OVC035 13/07 A2968 RMK AO2 T01280072
KAOO 051729Z AUTO 06007KT 10SM SCT021 SCT030 OVC035 13/08 A2968 RMK AO2 T01330078
KAOO 051653Z AUTO VRB05KT 10SM FEW019 OVC026 12/07 A2970 RMK AO2 SLP058 T01170072
KAOO 051553Z AUTO 05005KT 10SM BKN022 OVC029 11/07 A2971 RMK AO2 SLP061 T01060067
KAOO 051453Z AUTO 04006KT 10SM BKN017 OVC024 11/07 A2970 RMK AO2 SLP059 T01060072 51005
KAOO 051353Z AUTO 06006KT 10SM SCT012 OVC022 11/07 A2970 RMK AO2 SLP059 T01060072
KAOO 051328Z AUTO 05007KT 10SM BKN012 BKN020 OVC025 10/07 A2970 RMK AO2 T01000072
KAOO 051253Z AUTO 05006KT 10SM BKN017 10/07 A2969 RMK AO2 SLP056 T01000067
KAOO 051238Z AUTO 07007KT 10SM BKN015 10/07 A2970 RMK AO2 T01000067
KAOO 051200Z AUTO 05006KT 7SM SCT009 OVC013 09/07 A2969 RMK AO2 T00940072
KAOO 051153Z AUTO 03006KT 8SM BKN009 OVC013 09/08 A2969 RMK AO2 CIG 006V012 SLP055 60000 70006 T00940078 10106 20083 53006
KAOO 051053Z AUTO 05003KT 4SM BR OVC006 09/07 A2968 RMK AO2 RAB01E14 SLP051 P0000 T00890072
KAOO 050953Z AUTO VRB04KT 5SM BR OVC006 09/07 A2967 RMK AO2 RAB0859E08 CIG 004V009 SLP048 P0000 T00890072
KAOO 050853Z AUTO 11006KT 4SM BR OVC005 09/08 A2967 RMK AO2 CIG 004V010 SLP047 T00890078 56004
KAOO 050753Z AUTO 10SM OVC009 09/08 A2967 RMK AO2 SLP048 T00940078
KAOO 050653Z AUTO 12005KT 9SM BKN009 OVC015 10/08 A2967 RMK AO2 SLP049 T01000078
KAOO 050553Z AUTO 11004KT 10SM BKN012 OVC023 11/08 A2968 RMK AO2 SLP052 60000 T01060083 10117 20106 56004
KAOO 050549Z AUTO 11003KT 10SM BKN012 BKN016 OVC023 11/08 A2968 RMK AO2
KAOO 050520Z AUTO 13003KT 10SM SCT016 OVC021 11/08 A2968 RMK AO2 T01060083
KAOO 050509Z AUTO 11004KT 10SM BKN014 BKN023 OVC034 11/08 A2968 RMK AO2 T01060083
KAOO 050453Z AUTO 10006KT 10SM FEW014 OVC037 11/08 A2969 RMK AO2 SLP052 T01060083 401500067
KAOO 050443Z AUTO 12007KT 10SM FEW012 SCT017 OVC036 11/08 A2969 RMK AO2 T01060083
KAOO 050429Z AUTO 12007KT 10SM BKN015 BKN028 OVC034 11/08 A2969 RMK AO2 T01060083
KAOO 050418Z AUTO 13005KT 10SM BKN014 BKN023 OVC030 11/08 A2969 RMK AO2 T01060083
KAOO 050353Z AUTO 11005KT 10SM SCT015 OVC022 11/08 A2969 RMK AO2 SLP054 T01060083
KAOO 050324Z AUTO 10006KT 10SM SCT011 OVC018 11/08 A2969 RMK AO2 T01060083
KAOO 050315Z AUTO 11006KT 10SM BKN011 OVC018 11/09 A2968 RMK AO2 T01060089
KAOO 050253Z AUTO 09004KT 10SM SCT014 BKN020 OVC027 11/09 A2969 RMK AO2 RAB21E30 SLP054 P0000 60000 T01110089 50009
KAOO 050235Z AUTO 00000KT 10SM SCT013 BKN019 OVC027 11/09 A2970 RMK AO2 RAB21E30 P0000 T01110089
KAOO 050153Z AUTO 00000KT 10SM BKN012 OVC020 11/09 A2970 RMK AO2 SLP058 T01110089
KAOO 050137Z AUTO 00000KT 10SM BKN014 BKN018 OVC080 11/09 A2970 RMK AO2 T01110089
KAOO 050053Z AUTO 07003KT 10SM FEW020 OVC075 12/09 A2968 RMK AO2 LTG DSNT SW AND W SLP051 T01170089
KAOO 050029Z AUTO 06003KT 10SM FEW015 BKN019 OVC075 12/09 A2967 RMK AO2 LTG DSNT SW T01170089
KAOO 042353Z AUTO 06005KT 10SM BKN042 OVC100 12/08 A2966 RMK AO2 LTG DSNT SW SLP046 60005 T01170083 10144 20106 53006
KAOO 042253Z AUTO 05004KT 10SM BKN070 13/08 A2965 RMK AO2 SLP043 T01280083
KAOO 042153Z AUTO 07005KT 10SM SCT080 14/09 A2965 RMK AO2 SLP041 T01390089
KAOO 042053Z AUTO 02007KT 10SM FEW049 SCT060 BKN075 14/09 A2964 RMK AO2 SLP039 60005 T01390089 58010
KAOO 041953Z AUTO 05006KT 10SM BKN037 OVC055 12/09 A2965 RMK AO2 RAE14 SLP042 P0001 T01220094
KAOO 041929Z AUTO 08007KT 10SM SCT027 OVC037 12/09 A2966 RMK AO2 RAE14 P0001 T01170089
KAOO 041921Z AUTO 05004KT 10SM BKN027 OVC035 12/09 A2967 RMK AO2 RAE14 P0001 T01170089
KAOO 041906Z AUTO 04005KT 6SM VCTS -RA BR BKN029 OVC035 11/09 A2967 RMK AO2 LTG DSNT S P0001 T01110089
KAOO 041859Z AUTO 04005KT 2 1/2SM VCTS RA BR BKN027 OVC033 11/09 A2967 RMK AO2 VIS 1 3/4V4 P0001 T01110089
KAOO 041853Z AUTO 05003KT 3SM +RA BR BKN030 OVC035 11/08 A2967 RMK AO2 RAE01B48 SLP049 P0004 T01060083
KAOO 041848Z AUTO 36004KT 8SM -RA OVC032 11/08 A2967 RMK AO2 RAE01B48 P0000
KAOO 041830Z AUTO 04006KT 10SM OVC029 11/08 A2967 RMK AO2 RAE01 P0000 T01110083
KAOO 041753Z AUTO 11007G15KT 6SM -RA FEW024 BKN032 OVC044 12/08 A2967 RMK AO2 RAB41 TSB33E48 SLP048 P0001 60001 T01170083 10150 20100 58010
KAOO 041739Z AUTO 33004KT 10SM TS BKN034 OVC046 14/06 A2967 RMK AO2 TSB33 T01390061
KAOO 041653Z AUTO 31008KT 10SM FEW030 SCT045 OVC055 14/08 A2968 RMK AO2 SLP048 T01440078
KAOO 041553Z AUTO 00000KT 10SM SCT023 BKN085 14/08 A2970 RMK AO2 SLP053 T01440078
KAOO 041453Z AUTO 02003KT 10SM OVC085 13/08 A2970 RMK AO2 SLP057 T01280078 58006
KAOO 041353Z AUTO VRB03KT 10SM OVC080 12/08 A2971 RMK AO2 SLP061 T01220083
KAOO 041253Z AUTO 05004KT 10SM OVC085 11/08 A2972 RMK AO2 SLP062 T01060078
KAOO 041153Z AUTO 08005KT 10SM OVC085 10/07 A2972 RMK AO2 SLP064 T01000072 10122 20067 58003
KAOO 041053Z AUTO 01003KT 10SM OVC085 08/06 A2972 RMK AO2 SLP065 T00830061
KAOO 040953Z AUTO 18003KT 10SM FEW040 BKN085 08/06 A2973 RMK AO2 SLP068 T00830061
KAOO 040853Z AUTO 18003KT 10SM CLR 07/05 A2973 RMK AO2 SLP067 T00720050 56012